Time;durP1;ratioP1;P1;durP2;ratioP2;P2;SDS_P1;SDS_P2;PMS_P1;PMS_P2;Temp;Humidity;BMP_temperature;BMP_pressure;BME280_temperature;BME280_humidity;BME280_pressure;Samples;Min_cycle;Max_cycle;Signal;HPM_P1;HPM_P2
2021/09/18 00:02:08;;;;;;;8.55;5.92;;;;;;;25.45;62.68;99914.62;1766621;80;21047;-44
2021/09/18 00:04:34;;;;;;;8.60;5.97;;;;;;;25.45;62.72;99914.62;1771469;80;21004;-44
2021/09/18 00:07:00;;;;;;;7.83;6.25;;;;;;;25.46;62.82;99914.81;1772929;79;20883;-44
2021/09/18 00:09:26;;;;;;;8.63;6.15;;;;;;;25.47;62.89;99917.01;1769449;80;21102;-45
2021/09/18 00:11:52;;;;;;;9.88;7.17;;;;;;;25.47;62.97;99922.00;1768873;79;21542;-45
2021/09/18 00:14:19;;;;;;;10.13;6.65;;;;;;;25.47;63.00;99916.42;1769974;79;21054;-44
2021/09/18 00:16:46;;;;;;;9.73;7.72;;;;;;;25.47;62.99;99920.60;1766845;80;21577;-44
2021/09/18 00:19:12;;;;;;;9.43;7.70;;;;;;;25.47;63.00;99912.25;1770001;80;20995;-45
2021/09/18 00:21:39;;;;;;;9.15;7.12;;;;;;;25.47;62.97;99916.42;1768996;79;21016;-44
2021/09/18 00:24:05;;;;;;;9.43;6.97;;;;;;;25.45;62.96;99907.66;1770375;80;21031;-45
2021/09/18 00:26:37;;;;;;;9.13;7.65;;;;;;;25.47;62.95;99910.05;1773597;79;21519;-46
2021/09/18 00:29:05;;;;;;;8.25;6.50;;;;;;;25.45;62.92;99903.48;1768812;80;21462;-45
2021/09/18 00:31:31;;;;;;;8.68;6.22;;;;;;;25.45;62.90;99899.88;1770546;79;21079;-44
2021/09/18 00:33:57;;;;;;;9.43;6.30;;;;;;;25.45;62.94;99899.30;1766738;80;21653;-44
2021/09/18 00:36:23;;;;;;;8.78;6.22;;;;;;;25.46;63.02;99901.50;1774014;80;21040;-45
2021/09/18 00:38:49;;;;;;;8.25;6.35;;;;;;;25.47;63.08;99898.91;1769424;80;21698;-44
2021/09/18 00:41:16;;;;;;;8.58;6.92;;;;;;;25.47;63.14;99902.50;1767664;80;21745;-48
2021/09/18 00:43:42;;;;;;;9.05;7.08;;;;;;;25.47;63.17;99891.95;1770088;79;21111;-44
2021/09/18 00:46:08;;;;;;;10.80;7.33;;;;;;;25.45;63.15;99895.13;1740489;80;21694;-45
2021/09/18 00:48:34;;;;;;;8.75;7.25;;;;;;;25.46;63.14;99895.94;1771287;79;21080;-45
2021/09/18 00:51:00;;;;;;;8.98;7.20;;;;;;;25.45;63.09;99892.34;1770238;80;21054;-45
2021/09/18 00:53:26;;;;;;;10.15;7.22;;;;;;;25.45;63.06;99890.14;1764766;80;21635;-47
2021/09/18 00:55:52;;;;;;;9.75;7.65;;;;;;;25.45;63.03;99899.88;1769450;79;21047;-45
2021/09/18 00:58:18;;;;;;;8.85;6.47;;;;;;;25.43;62.99;99898.05;1765654;80;21150;-44
2021/09/18 01:00:44;;;;;;;8.75;6.40;;;;;;;25.43;62.98;99903.03;1766267;80;21346;-46
2021/09/18 01:03:10;;;;;;;9.08;6.15;;;;;;;25.45;63.02;99909.63;1768449;79;21057;-45
2021/09/18 01:05:37;;;;;;;7.83;5.95;;;;;;;25.44;63.05;99910.80;1761826;80;21182;-43
2021/09/18 01:08:04;;;;;;;8.80;6.53;;;;;;;25.45;63.12;99903.48;1766746;79;21085;-47
2021/09/18 01:10:30;;;;;;;8.60;6.92;;;;;;;25.46;63.15;99902.89;1765742;79;21736;-47
2021/09/18 01:13:04;;;;;;;9.20;7.00;;;;;;;25.45;63.19;99904.88;1774061;79;21055;-48
2021/09/18 01:15:33;;;;;;;9.28;7.40;;;;;;;25.45;63.18;99907.66;1769177;80;21496;-44
2021/09/18 01:18:00;;;;;;;9.53;7.50;;;;;;;25.46;63.12;99901.50;1767062;79;21075;-44
2021/09/18 01:20:27;;;;;;;9.25;7.60;;;;;;;25.46;63.09;99908.46;1767275;80;21096;-46
2021/09/18 01:22:55;;;;;;;9.63;7.42;;;;;;;25.45;63.05;99909.63;1766728;79;21095;-44
2021/09/18 01:25:21;;;;;;;8.93;7.05;;;;;;;25.43;63.03;99905.81;1764552;80;21057;-45
2021/09/18 01:27:48;;;;;;;10.30;6.87;;;;;;;25.41;63.00;99902.61;1770737;79;21023;-44
2021/09/18 01:30:19;;;;;;;9.53;6.80;;;;;;;25.42;62.98;99911.75;1773292;79;21549;-46
2021/09/18 01:32:46;;;;;;;8.10;6.62;;;;;;;25.42;62.99;99908.38;1769065;80;21068;-46
2021/09/18 01:35:12;;;;;;;8.55;6.17;;;;;;;25.42;63.06;99897.23;1764381;78;21041;-46
2021/09/18 01:37:38;;;;;;;10.60;6.75;;;;;;;25.44;63.15;99906.04;1781515;78;21420;-46
2021/09/18 01:40:06;;;;;;;8.53;6.87;;;;;;;25.44;63.19;99899.66;1772042;79;21544;-46
2021/09/18 01:42:32;;;;;;;9.65;7.30;;;;;;;25.44;63.20;99901.86;1768598;80;21206;-45
2021/09/18 01:44:58;;;;;;;10.15;7.45;;;;;;;25.44;63.20;99903.84;1769513;80;21509;-45
2021/09/18 01:47:40;;;;;;;8.83;6.90;;;;;;;25.45;63.17;99901.28;1769480;80;21072;-45
2021/09/18 01:50:20;;;;;;;8.98;7.08;;;;;;;25.44;63.10;99901.86;1731227;80;21076;-46
2021/09/18 01:52:48;;;;;;;10.68;7.80;;;;;;;25.43;63.04;99903.03;1735053;79;21324;-45
2021/09/18 01:55:16;;;;;;;10.25;7.37;;;;;;;25.41;62.99;99904.01;1737309;80;21498;-46
2021/09/18 01:57:48;;;;;;;8.93;6.83;;;;;;;25.39;62.95;99903.56;1771368;79;20959;-45
2021/09/18 02:00:14;;;;;;;8.05;6.15;;;;;;;25.39;62.93;99900.77;1766826;79;21064;-45
2021/09/18 02:02:42;;;;;;;7.72;5.75;;;;;;;25.40;62.95;99901.58;1769379;79;21047;-53
2021/09/18 02:05:09;;;;;;;9.70;6.58;;;;;;;25.39;63.06;99895.80;1768841;79;21097;-46
2021/09/18 02:07:36;;;;;;;7.92;6.40;;;;;;;25.40;63.10;99898.22;1772605;79;21133;-44
2021/09/18 02:10:06;;;;;;;7.97;6.62;;;;;;;25.41;63.17;99894.84;1785245;78;21039;-46
2021/09/18 02:12:33;;;;;;;8.63;6.70;;;;;;;25.42;63.19;99902.00;1770505;80;21034;-44
2021/09/18 02:14:59;;;;;;;7.83;6.42;;;;;;;25.42;63.14;99905.59;1771697;80;20980;-48
2021/09/18 02:17:25;;;;;;;9.53;6.90;;;;;;;25.43;63.11;99903.62;1772976;80;21083;-46
2021/09/18 02:19:51;;;;;;;9.55;6.92;;;;;;;25.42;63.06;99907.56;1772437;79;21598;-46
2021/09/18 02:22:17;;;;;;;9.10;7.62;;;;;;;25.41;63.00;99896.23;1765455;79;21785;-45
2021/09/18 02:24:43;;;;;;;10.50;7.80;;;;;;;25.40;62.94;99896.02;1769530;79;21005;-47
2021/09/18 02:27:09;;;;;;;9.50;7.70;;;;;;;25.37;62.94;99897.58;1771254;80;21542;-44
2021/09/18 02:29:35;;;;;;;9.38;7.10;;;;;;;25.35;62.87;99894.92;1769195;79;21010;-46
2021/09/18 02:32:02;;;;;;;8.73;6.53;;;;;;;25.35;62.86;99892.95;1774608;79;21219;-46
2021/09/18 02:34:28;;;;;;;7.65;6.15;;;;;;;25.35;62.90;99891.56;1771148;79;21083;-44
2021/09/18 02:36:54;;;;;;;7.67;6.30;;;;;;;25.35;62.98;99891.56;1768962;80;21517;-48
2021/09/18 02:39:20;;;;;;;6.92;5.87;;;;;;;25.36;63.04;99893.17;1768218;80;21987;-47
2021/09/18 02:41:47;;;;;;;10.03;7.37;;;;;;;25.37;63.13;99900.36;1772070;80;21001;-44
2021/09/18 02:44:13;;;;;;;8.23;6.58;;;;;;;25.37;63.10;99901.75;1767450;80;21950;-45
2021/09/18 02:46:39;;;;;;;11.10;6.85;;;;;;;25.37;63.08;99895.37;1768242;80;21036;-45
2021/09/18 02:49:05;;;;;;;9.63;6.78;;;;;;;25.38;63.03;99894.17;1772736;80;21491;-46
2021/09/18 02:51:31;;;;;;;9.75;7.03;;;;;;;25.37;62.97;99889.22;1768675;80;21869;-48
2021/09/18 02:53:58;;;;;;;8.63;7.25;;;;;;;25.37;62.92;99893.40;1773456;80;21076;-49
2021/09/18 02:56:25;;;;;;;11.68;7.70;;;;;;;25.36;62.89;99890.97;1768150;78;21987;-48
2021/09/18 02:58:51;;;;;;;10.20;7.55;;;;;;;25.33;62.84;99891.11;1773950;78;21146;-47
2021/09/18 03:01:17;;;;;;;9.00;6.78;;;;;;;25.30;62.81;99887.69;1772952;78;21027;-47
2021/09/18 03:03:43;;;;;;;8.28;6.62;;;;;;;25.30;62.77;99896.63;1781226;78;21123;-46
2021/09/18 03:06:09;;;;;;;8.83;6.10;;;;;;;25.31;62.81;99889.89;1779249;79;21063;-46
2021/09/18 03:08:35;;;;;;;7.65;6.15;;;;;;;25.30;62.89;99896.04;1777922;78;21789;-48
2021/09/18 03:11:02;;;;;;;7.58;6.33;;;;;;;25.32;62.94;99900.66;1774440;80;20895;-44
2021/09/18 03:13:28;;;;;;;8.63;6.50;;;;;;;25.33;63.00;99896.68;1771778;79;21113;-46
2021/09/18 03:15:54;;;;;;;7.58;6.33;;;;;;;25.33;63.01;99900.86;1770734;80;20945;-45
2021/09/18 03:18:20;;;;;;;8.90;7.05;;;;;;;25.35;62.98;99907.45;1765320;78;21424;-46
2021/09/18 03:20:46;;;;;;;8.58;6.87;;;;;;;25.35;62.92;99902.70;1758900;80;21142;-45
2021/09/18 03:23:13;;;;;;;11.08;7.72;;;;;;;25.35;62.86;99903.28;1733991;80;21662;-46
2021/09/18 03:25:43;;;;;;;9.15;6.78;;;;;;;25.33;62.79;99903.64;1781357;78;21032;-45
2021/09/18 03:28:10;;;;;;;7.15;6.33;;;;;;;25.31;62.74;99911.58;1770311;80;21534;-45
2021/09/18 03:30:36;;;;;;;10.63;7.92;;;;;;;25.28;62.69;99903.97;1773175;80;20984;-47
2021/09/18 03:33:02;;;;;;;8.98;7.40;;;;;;;25.26;62.65;99906.31;1770161;79;21230;-45
2021/09/18 03:35:28;;;;;;;7.65;6.25;;;;;;;25.24;62.62;99899.52;1773053;80;20948;-44
2021/09/18 03:37:55;;;;;;;6.90;6.15;;;;;;;25.24;62.59;99897.54;1774227;79;21064;-45
2021/09/18 03:40:21;;;;;;;7.75;6.28;;;;;;;25.25;62.65;99896.95;1771713;79;21498;-47
2021/09/18 03:42:47;;;;;;;8.95;6.58;;;;;;;25.24;62.72;99891.97;1768996;80;20894;-47
2021/09/18 03:45:13;;;;;;;7.97;6.40;;;;;;;25.26;62.80;99891.58;1770961;79;21115;-44
2021/09/18 03:47:39;;;;;;;9.63;6.62;;;;;;;25.28;62.85;99889.25;1772704;80;20893;-49
2021/09/18 03:50:08;;;;;;;7.25;6.35;;;;;;;25.27;62.88;99891.22;1770203;80;20989;-44
2021/09/18 03:52:34;;;;;;;8.45;6.83;;;;;;;25.29;62.83;99883.91;1768369;80;21015;-46
2021/09/18 03:55:00;;;;;;;9.75;6.80;;;;;;;25.28;62.78;99885.88;1771033;79;21070;-45
2021/09/18 03:57:26;;;;;;;9.28;6.87;;;;;;;25.28;62.72;99883.67;1768810;79;21120;-44
2021/09/18 03:59:52;;;;;;;10.93;6.92;;;;;;;25.28;62.64;99882.28;1765938;80;21007;-45
2021/09/18 04:02:18;;;;;;;8.53;7.17;;;;;;;25.25;62.57;99890.77;1771636;79;21403;-45
2021/09/18 04:04:44;;;;;;;8.40;7.55;;;;;;;25.25;62.55;99888.60;1772170;79;20899;-47
2021/09/18 04:07:10;;;;;;;8.73;7.03;;;;;;;25.22;62.50;99890.13;1765435;79;22656;-45
2021/09/18 04:09:37;;;;;;;8.98;6.70;;;;;;;25.20;62.49;99890.30;1769658;79;21436;-46
2021/09/18 04:12:03;;;;;;;8.03;6.15;;;;;;;25.20;62.47;99888.32;1769513;79;21024;-45
2021/09/18 04:14:30;;;;;;;7.33;5.55;;;;;;;25.20;62.51;99899.45;1769299;80;21062;-45
2021/09/18 04:16:56;;;;;;;6.40;5.47;;;;;;;25.20;62.60;99893.89;1770758;80;21557;-44
2021/09/18 04:19:22;;;;;;;8.38;6.50;;;;;;;25.21;62.67;99893.28;1771549;80;20909;-45
2021/09/18 04:21:48;;;;;;;10.15;7.08;;;;;;;25.23;62.73;99894.53;1780350;79;21294;-46
2021/09/18 04:24:14;;;;;;;8.20;6.62;;;;;;;25.23;62.74;99883.39;1787939;78;21577;-44
2021/09/18 04:26:40;;;;;;;9.88;7.05;;;;;;;25.25;62.67;99883.81;1792821;79;21103;-46
2021/09/18 04:29:06;;;;;;;7.40;6.58;;;;;;;25.26;62.61;99880.45;1788422;78;21963;-46
2021/09/18 04:31:32;;;;;;;9.38;7.03;;;;;;;25.26;62.53;99881.84;1792606;78;21011;-44
2021/09/18 04:33:58;;;;;;;7.55;6.42;;;;;;;25.25;62.45;99876.08;1793452;78;22123;-46
2021/09/18 04:36:25;;;;;;;8.73;6.45;;;;;;;25.24;62.38;99886.41;1753609;80;21095;-45
2021/09/18 04:38:51;;;;;;;9.10;6.97;;;;;;;25.21;62.33;99884.34;1769539;79;21381;-46
2021/09/18 04:41:17;;;;;;;9.28;6.72;;;;;;;25.19;62.29;99888.68;1792378;78;20988;-45
2021/09/18 04:43:43;;;;;;;10.43;7.10;;;;;;;25.17;62.25;99887.65;1757350;79;21139;-45
2021/09/18 04:46:09;;;;;;;8.48;6.10;;;;;;;25.13;62.22;99882.61;1785204;78;21185;-44
2021/09/18 04:48:35;;;;;;;6.87;5.92;;;;;;;25.14;62.20;99880.63;1775803;78;21106;-44
2021/09/18 04:51:01;;;;;;;6.95;5.85;;;;;;;25.13;62.24;99893.73;1783251;78;21036;-45
2021/09/18 04:53:27;;;;;;;7.92;5.45;;;;;;;25.15;62.32;99889.20;1786548;78;20911;-45
2021/09/18 04:55:53;;;;;;;8.13;6.47;;;;;;;25.16;62.39;99899.17;1779223;78;21023;-47
2021/09/18 04:58:19;;;;;;;8.75;5.85;;;;;;;25.17;62.43;99896.58;1784346;79;21128;-45
2021/09/18 05:00:45;;;;;;;8.45;6.83;;;;;;;25.18;62.42;99896.81;1782715;78;21544;-46
2021/09/18 05:03:12;;;;;;;9.03;7.35;;;;;;;25.20;62.38;99894.47;1786082;78;21163;-47
2021/09/18 05:05:38;;;;;;;8.98;6.70;;;;;;;25.21;62.30;99892.69;1782152;79;20999;-44
2021/09/18 05:08:06;;;;;;;9.23;6.83;;;;;;;25.21;62.23;99890.48;1780301;78;21321;-44
2021/09/18 05:10:32;;;;;;;8.35;6.37;;;;;;;25.21;62.15;99884.92;1791135;78;21077;-45
2021/09/18 05:12:58;;;;;;;9.95;6.65;;;;;;;25.20;62.08;99890.30;1784715;78;20973;-48
2021/09/18 05:15:25;;;;;;;7.50;6.42;;;;;;;25.17;62.02;99884.87;1762793;80;21130;-45
2021/09/18 05:17:51;;;;;;;7.80;6.92;;;;;;;25.16;61.97;99895.81;1744834;80;21124;-46
2021/09/18 05:20:17;;;;;;;8.33;6.92;;;;;;;25.14;61.93;99893.16;1758654;79;21057;-45
2021/09/18 05:22:43;;;;;;;5.95;5.33;;;;;;;25.10;61.88;99898.66;1760875;79;22075;-46
2021/09/18 05:25:10;;;;;;;7.70;5.50;;;;;;;25.12;61.84;99899.70;1759623;79;21044;-47
2021/09/18 05:27:36;;;;;;;6.92;5.20;;;;;;;25.12;61.90;99898.31;1757884;80;21070;-47
2021/09/18 05:30:05;;;;;;;9.48;6.20;;;;;;;25.12;61.95;99900.48;1737491;80;21561;-45
2021/09/18 05:32:31;;;;;;;8.35;6.03;;;;;;;25.13;62.04;99899.31;1776285;78;21088;-46
2021/09/18 05:34:57;;;;;;;10.68;7.10;;;;;;;25.14;62.06;99903.71;1781061;78;21246;-47
2021/09/18 05:37:23;;;;;;;10.25;6.87;;;;;;;25.15;62.05;99905.33;1781954;79;21032;-46
2021/09/18 05:39:49;;;;;;;8.65;6.60;;;;;;;25.15;61.99;99896.97;1772357;79;20941;-47
2021/09/18 05:42:16;;;;;;;7.53;6.00;;;;;;;25.15;61.90;99905.33;1767387;80;20902;-46
2021/09/18 05:44:42;;;;;;;11.05;8.63;;;;;;;25.15;61.84;99904.52;1772272;80;21015;-45
2021/09/18 05:47:08;;;;;;;74.62;39.83;;;;;;;25.15;61.79;99911.47;1766734;80;20961;-47
2021/09/18 05:49:34;;;;;;;64.32;28.25;;;;;;;25.14;61.74;99906.49;1773655;78;20984;-47
2021/09/18 05:52:00;;;;;;;55.28;25.30;;;;;;;25.13;61.72;99907.66;1770532;79;21007;-47
2021/09/18 05:54:29;;;;;;;33.33;15.58;;;;;;;25.12;61.68;99913.61;1769990;79;20975;-45
2021/09/18 05:56:55;;;;;;;44.25;19.85;;;;;;;25.14;61.67;99917.63;1768134;79;21079;-50
2021/09/18 05:59:22;;;;;;;17.25;7.95;;;;;;;25.15;61.73;99909.50;1770017;79;21533;-45
2021/09/18 06:01:48;;;;;;;10.60;6.60;;;;;;;25.17;61.80;99916.87;1772243;79;21101;-46
2021/09/18 06:04:14;;;;;;;8.83;6.15;;;;;;;25.18;61.86;99917.10;1769117;79;20910;-48
2021/09/18 06:06:40;;;;;;;10.72;7.20;;;;;;;25.21;61.90;99917.75;1780261;78;21541;-46
2021/09/18 06:09:06;;;;;;;7.65;6.22;;;;;;;25.21;61.88;99923.31;1767444;79;20988;-48
2021/09/18 06:11:32;;;;;;;19.77;11.05;;;;;;;25.23;61.84;99916.80;1765603;79;21228;-46
2021/09/18 06:13:59;;;;;;;50.50;22.87;;;;;;;25.24;61.80;99912.05;1767589;79;21008;-44
2021/09/18 06:16:25;;;;;;;66.67;26.65;;;;;;;25.24;61.73;99922.59;1768923;79;20990;-48
2021/09/18 06:18:52;;;;;;;20.85;10.93;;;;;;;25.24;61.70;99921.20;1765992;79;20905;-45
2021/09/18 06:21:18;;;;;;;42.67;18.70;;;;;;;25.24;61.63;99923.98;1768408;79;22320;-45
2021/09/18 06:23:46;;;;;;;19.42;10.65;;;;;;;25.23;61.60;99924.34;1767904;79;21044;-45
2021/09/18 06:26:14;;;;;;;24.02;10.13;;;;;;;25.23;61.59;99928.52;1768964;79;21485;-44
2021/09/18 06:28:40;;;;;;;16.77;8.25;;;;;;;25.24;61.57;99935.70;1765710;79;21122;-44
2021/09/18 06:31:06;;;;;;;18.80;7.75;;;;;;;25.25;61.60;99939.49;1762268;80;21134;-45
2021/09/18 06:33:33;;;;;;;11.63;6.50;;;;;;;25.27;61.69;99937.16;1768682;79;21548;-44
2021/09/18 06:36:00;;;;;;;14.00;8.03;;;;;;;25.29;61.77;99937.58;1763178;79;21742;-48
2021/09/18 06:38:26;;;;;;;37.08;14.00;;;;;;;25.31;61.78;99943.59;1778066;78;21068;-44
2021/09/18 06:40:55;;;;;;;15.60;8.13;;;;;;;25.31;61.76;99936.64;1757756;80;21071;-45
2021/09/18 06:43:22;;;;;;;16.07;8.05;;;;;;;25.32;61.73;99941.03;1770372;80;21076;-45
2021/09/18 06:45:49;;;;;;;24.80;11.50;;;;;;;25.33;61.69;99938.45;1765950;80;21120;-49
2021/09/18 06:48:16;;;;;;;16.32;8.15;;;;;;;25.34;61.65;99946.22;1763776;80;21299;-46
2021/09/18 06:50:42;;;;;;;8.73;7.05;;;;;;;25.34;61.64;99947.02;1766696;80;21190;-46
2021/09/18 06:53:08;;;;;;;9.05;6.80;;;;;;;25.34;61.58;99955.95;1763397;80;21098;-45
2021/09/18 06:55:35;;;;;;;9.45;6.60;;;;;;;25.33;61.49;99943.23;1764964;80;21050;-45
2021/09/18 06:58:01;;;;;;;10.75;6.08;;;;;;;25.29;61.23;99944.53;1764129;79;21103;-45
2021/09/18 07:00:28;;;;;;;8.25;6.30;;;;;;;25.28;60.98;99941.56;1762004;79;22063;-48
2021/09/18 07:02:54;;;;;;;9.20;6.28;;;;;;;25.26;60.86;99950.86;1761273;79;21162;-44
2021/09/18 07:05:21;;;;;;;8.48;6.35;;;;;;;25.24;60.76;99943.48;1761821;80;20881;-45
2021/09/18 07:07:47;;;;;;;7.50;6.28;;;;;;;25.23;60.68;99946.03;1765723;80;21064;-44
2021/09/18 07:10:13;;;;;;;8.15;6.12;;;;;;;25.21;60.65;99943.38;1765368;79;21536;-44
2021/09/18 07:12:40;;;;;;;8.05;5.78;;;;;;;25.20;60.61;99959.89;1766639;79;21102;-46
2021/09/18 07:15:07;;;;;;;8.40;5.75;;;;;;;25.20;60.59;99951.54;1759673;80;21333;-45
2021/09/18 07:17:34;;;;;;;7.97;5.05;;;;;;;25.21;60.62;99961.48;1766904;80;21114;-44
2021/09/18 07:20:00;;;;;;;7.28;5.62;;;;;;;25.22;60.67;99955.55;1764067;80;21141;-47
2021/09/18 07:22:26;;;;;;;6.95;5.70;;;;;;;25.23;60.68;99971.09;1763789;80;21527;-44
2021/09/18 07:24:53;;;;;;;7.60;6.42;;;;;;;25.24;60.63;99967.14;1768487;79;21330;-45
2021/09/18 07:27:19;;;;;;;8.23;6.17;;;;;;;25.27;60.52;99964.19;1767557;80;21537;-44
2021/09/18 07:29:46;;;;;;;8.53;6.83;;;;;;;25.28;60.42;99976.36;1765260;80;21104;-44
2021/09/18 07:32:12;;;;;;;8.73;6.70;;;;;;;25.28;60.34;99958.27;1763902;80;21032;-44
2021/09/18 07:34:39;;;;;;;9.43;6.97;;;;;;;25.28;60.23;99954.09;1762546;80;21052;-44
2021/09/18 07:37:05;;;;;;;12.20;7.53;;;;;;;25.29;60.12;99959.07;1767453;80;21304;-45
2021/09/18 07:39:32;;;;;;;12.88;8.20;;;;;;;25.26;60.04;99964.78;1764226;79;20984;-46
2021/09/18 07:41:58;;;;;;;9.00;7.08;;;;;;;25.26;59.95;99964.78;1761747;80;21434;-47
2021/09/18 07:44:24;;;;;;;9.15;6.83;;;;;;;25.26;59.88;99959.79;1753049;80;21506;-48
2021/09/18 07:46:51;;;;;;;10.68;6.70;;;;;;;25.25;59.82;99965.16;1764953;79;21027;-45
2021/09/18 07:49:17;;;;;;;10.58;6.85;;;;;;;25.23;59.78;99949.41;1769933;80;21242;-44
2021/09/18 07:51:46;;;;;;;9.10;6.37;;;;;;;25.22;59.74;99967.27;1766312;79;21065;-48
2021/09/18 07:54:12;;;;;;;9.53;6.60;;;;;;;25.21;59.69;99962.87;1761230;80;20988;-45
2021/09/18 07:56:39;;;;;;;6.62;5.92;;;;;;;25.19;59.67;99962.45;1772696;79;21114;-45
2021/09/18 07:59:05;;;;;;;7.95;5.87;;;;;;;25.17;59.67;99957.24;1767850;80;21087;-46
2021/09/18 08:01:32;;;;;;;9.58;6.05;;;;;;;25.16;59.60;99957.63;1773147;80;21238;-45
2021/09/18 08:04:03;;;;;;;7.53;5.17;;;;;;;25.14;59.58;99956.59;1770268;79;21479;-45
2021/09/18 08:06:30;;;;;;;6.37;4.80;;;;;;;25.12;59.53;99956.76;1765627;79;21019;-46
2021/09/18 08:08:56;;;;;;;7.35;4.80;;;;;;;25.10;59.53;99959.90;1767259;79;21606;-44
2021/09/18 08:11:23;;;;;;;4.85;4.17;;;;;;;25.09;59.50;99953.30;1772507;79;21047;-46
2021/09/18 08:13:51;;;;;;;5.75;3.70;;;;;;;25.10;59.48;99971.03;1774361;80;21237;-48
2021/09/18 08:16:17;;;;;;;14.33;7.58;;;;;;;25.13;59.52;99973.66;1773380;80;21006;-48
2021/09/18 08:18:43;;;;;;;19.48;8.33;;;;;;;25.16;59.58;99971.55;1765609;80;21029;-46
2021/09/18 08:21:11;;;;;;;156.12;64.17;;;;;;;25.18;59.62;99975.56;1773841;80;21036;-46
2021/09/18 08:23:37;;;;;;;574.40;276.80;;;;;;;25.22;59.59;99970.05;1768231;79;21022;-53
2021/09/18 08:26:04;;;;;;;63.38;23.02;;;;;;;25.23;59.54;99963.32;1767667;80;22304;-47
2021/09/18 08:28:31;;;;;;;105.25;40.98;;;;;;;25.26;59.42;99963.37;1771911;79;21049;-52
2021/09/18 08:30:57;;;;;;;177.70;68.00;;;;;;;25.28;59.30;99965.22;1771709;80;21035;-51
2021/09/18 08:33:23;;;;;;;363.02;140.77;;;;;;;25.32;59.20;99959.72;1769333;79;21175;-47
2021/09/18 08:35:49;;;;;;;749.85;379.70;;;;;;;25.31;59.08;99964.48;1771478;80;21020;-51
2021/09/18 08:38:17;;;;;;;96.80;33.40;;;;;;;25.32;58.99;99973.64;1770427;80;21242;-47
2021/09/18 08:40:44;;;;;;;13.40;5.60;;;;;;;25.31;58.91;99968.66;1773668;80;21068;-46
2021/09/18 08:43:10;;;;;;;14.18;5.75;;;;;;;25.29;58.82;99969.59;1767873;80;21011;-44
2021/09/18 08:45:36;;;;;;;5.80;3.80;;;;;;;25.27;58.74;99973.35;1766699;80;20997;-45
2021/09/18 08:48:05;;;;;;;3.65;2.90;;;;;;;25.27;58.69;99968.37;1770144;79;21179;-48
2021/09/18 08:50:33;;;;;;;3.70;2.62;;;;;;;25.25;58.63;99984.66;1765949;80;21160;-47
2021/09/18 08:53:00;;;;;;;4.55;2.98;;;;;;;25.23;58.57;99986.98;1769094;79;21048;-46
2021/09/18 08:55:26;;;;;;;5.92;3.02;;;;;;;25.21;58.47;99994.88;1766536;80;21044;-46
2021/09/18 08:57:52;;;;;;;5.33;2.40;;;;;;;25.18;58.42;99984.49;1771745;80;21027;-49
2021/09/18 09:00:36;;;;;;;4.10;2.15;;;;;;;25.16;58.38;99984.88;1768215;80;21059;-47
2021/09/18 09:03:06;;;;;;;2.80;2.27;;;;;;;25.14;58.33;99983.04;1767381;80;21079;-46
2021/09/18 09:05:35;;;;;;;3.77;2.27;;;;;;;25.12;58.28;99997.89;1764647;79;20995;-48
2021/09/18 09:08:06;;;;;;;2.70;2.30;;;;;;;25.10;58.25;99984.14;1775016;80;20996;-47
2021/09/18 09:10:33;;;;;;;3.37;2.02;;;;;;;25.08;58.20;99975.37;1770633;79;21111;-48
2021/09/18 09:13:12;;;;;;;4.28;2.02;;;;;;;25.06;58.17;99977.12;1770880;80;21067;-48
2021/09/18 09:15:39;;;;;;;3.85;2.15;;;;;;;25.05;58.13;99974.11;1767983;80;21513;-46
2021/09/18 09:18:26;;;;;;;2.72;2.12;;;;;;;25.03;58.11;99977.05;1771769;79;21084;-46
2021/09/18 09:21:20;;;;;;;3.15;2.08;;;;;;;25.00;58.09;99977.99;1770216;80;21062;-49
2021/09/18 09:24:18;;;;;;;3.37;1.92;;;;;;;24.99;58.08;99976.98;1750887;80;21044;-48
2021/09/18 09:27:07;;;;;;;2.00;1.60;;;;;;;24.97;58.05;99965.40;1741831;81;21064;-47
2021/09/18 09:29:46;;;;;;;2.00;1.65;;;;;;;24.95;58.00;99956.63;1743810;81;21137;-47
2021/09/18 09:32:35;;;;;;;2.52;1.80;;;;;;;24.93;58.01;99968.70;1738352;81;21142;-45
2021/09/18 09:35:13;;;;;;;2.72;1.65;;;;;;;24.92;57.97;99960.12;1712253;81;21103;-50
2021/09/18 09:37:41;;;;;;;2.55;1.87;;;;;;;24.90;57.94;99956.34;1739214;81;21083;-47
2021/09/18 09:40:09;;;;;;;2.20;1.62;;;;;;;24.89;57.91;99965.05;1742594;79;21063;-48
2021/09/18 09:42:44;;;;;;;2.35;1.70;;;;;;;24.88;57.88;99951.72;1745910;81;21066;-50
2021/09/18 09:45:16;;;;;;;3.67;1.77;;;;;;;24.87;57.89;99959.03;1745630;80;21544;-45
2021/09/18 09:47:43;;;;;;;40.83;18.02;;;;;;;24.88;57.89;99953.69;1747416;80;21499;-46
2021/09/18 09:50:10;;;;;;;156.80;62.70;;;;;;;24.88;57.89;99949.52;1748659;81;21063;-49
2021/09/18 09:52:37;;;;;;;60.17;22.85;;;;;;;24.88;57.91;99955.08;1749796;81;21109;-47
2021/09/18 09:55:13;;;;;;;19.42;7.30;;;;;;;24.89;57.91;99944.17;1744374;81;21830;-48
2021/09/18 09:57:41;;;;;;;26.10;8.83;;;;;;;24.88;57.92;99948.13;1748192;79;21011;-49
2021/09/18 10:00:11;;;;;;;11.70;3.52;;;;;;;24.88;57.91;99948.93;1744406;80;21091;-48
2021/09/18 10:02:38;;;;;;;;;;;;;;;24.90;57.90;99958.31;1750560;81;21028;-47
2021/09/18 10:05:11;;;;;;;16.85;5.92;;;;;;;24.91;57.92;99946.80;1738923;81;20176;-46
2021/09/18 10:07:38;;;;;;;98.35;35.48;;;;;;;24.94;57.99;99957.80;1746905;80;21466;-49
2021/09/18 10:10:06;;;;;;;59.13;22.65;;;;;;;24.99;58.09;99951.94;1747056;80;21023;-48
2021/09/18 10:12:32;;;;;;;67.55;21.65;;;;;;;25.01;58.19;99947.61;1746184;80;21487;-47
2021/09/18 10:14:59;;;;;;;46.45;17.80;;;;;;;25.05;58.18;99946.27;1710886;82;21060;-47
2021/09/18 10:17:25;;;;;;;14.18;5.42;;;;;;;25.09;58.15;99950.52;1748769;80;21027;-46
2021/09/18 10:25:18;;;;;;;3.87;2.05;;;;;;;25.17;57.92;99957.83;1753575;79;21006;-47
2021/09/18 10:28:10;;;;;;;6.22;2.40;;;;;;;25.18;57.84;99953.29;1750491;81;21096;-50
2021/09/18 10:30:41;;;;;;;36.20;12.75;;;;;;;25.21;57.75;99947.56;1748337;80;21008;-49
2021/09/18 10:33:30;;;;;;;17.30;7.40;;;;;;;25.21;57.69;99943.38;1746529;80;21142;-51
2021/09/18 10:36:05;;;;;;;6.28;2.85;;;;;;;25.23;57.62;99957.75;1750512;81;21482;-48
2021/09/18 10:38:34;;;;;;;26.57;9.73;;;;;;;25.22;57.55;99943.61;1747509;80;21000;-46
2021/09/18 10:41:05;;;;;;;31.73;11.37;;;;;;;25.23;57.51;99929.91;1749972;80;21548;-46
2021/09/18 10:43:35;;;;;;;4.78;2.22;;;;;;;25.22;57.48;99924.13;1736683;80;21075;-47
2021/09/18 10:46:06;;;;;;;3.30;2.10;;;;;;;25.21;57.45;99931.66;1746264;80;21766;-49
2021/09/18 10:48:47;;;;;;;6.53;2.60;;;;;;;25.21;57.42;99927.48;1746626;80;21619;-48
2021/09/18 10:51:38;;;;;;;279.10;117.57;;;;;;;25.21;57.39;99931.66;1746293;81;22189;-48
2021/09/18 10:54:11;;;;;;;9.50;2.70;;;;;;;25.22;57.39;99943.61;1746981;81;21247;-50
2021/09/18 10:57:04;;;;;;;5.65;2.58;;;;;;;25.22;57.37;99932.47;1748528;81;21086;-47
2021/09/18 10:59:45;;;;;;;31.60;10.68;;;;;;;25.21;57.35;99935.84;1748111;81;21553;-47
2021/09/18 11:02:33;;;;;;;8.35;3.62;;;;;;;25.22;57.35;99939.44;1743830;80;20961;-47
2021/09/18 11:05:06;;;;;;;8.75;3.55;;;;;;;25.22;57.32;99937.45;1745361;81;32445;-48
2021/09/18 11:07:50;;;;;;;5.92;2.95;;;;;;;25.22;57.33;99941.63;1742916;81;21120;-47
2021/09/18 11:10:30;;;;;;;5.78;2.60;;;;;;;25.22;57.31;99942.22;1735344;81;21010;-51
2021/09/18 11:13:14;;;;;;;5.50;2.37;;;;;;;25.23;57.30;99936.88;1740579;81;23237;-45
2021/09/18 11:15:50;;;;;;;5.87;2.80;;;;;;;25.22;57.25;99937.45;1745993;79;21179;-46
2021/09/18 11:18:39;;;;;;;6.00;2.42;;;;;;;25.22;57.26;99932.47;1744360;80;21053;-47
2021/09/18 11:21:19;;;;;;;5.17;2.40;;;;;;;25.23;57.24;99930.72;1686539;83;21628;-46
2021/09/18 11:23:52;;;;;;;4.40;2.77;;;;;;;25.24;57.24;99932.34;1740744;79;21118;-49
2021/09/18 11:26:40;;;;;;;4.72;2.35;;;;;;;25.24;57.19;99935.13;1751868;79;21493;-46
2021/09/18 11:29:20;;;;;;;4.53;2.52;;;;;;;25.24;57.18;99932.92;1744016;79;21539;-46
2021/09/18 11:32:07;;;;;;;5.12;2.17;;;;;;;25.25;57.15;99933.92;1766645;79;21091;-46
2021/09/18 11:34:52;;;;;;;3.17;1.90;;;;;;;25.25;57.11;99937.33;1765287;79;21004;-47
2021/09/18 11:37:31;;;;;;;3.00;1.87;;;;;;;25.26;57.07;99927.77;1765994;80;21004;-47
2021/09/18 11:40:08;;;;;;;3.12;1.82;;;;;;;25.27;57.03;99926.61;1768467;79;21876;-47
2021/09/18 11:42:40;;;;;;;2.95;2.10;;;;;;;25.26;56.98;99927.19;1765413;80;21016;-45